Latest Weather Observations for Holsworthy

IDN60801

Issued at 3:33 pm EDT Thursday 28 January 2021 (issued every 10 minutes, with the page automatically refreshed every 10 minutes)

About weather observations | Map of weather stations | Latest weather observations for NSW | Other Formats
Station Details ID: 066161 Name: HOLSWORTHY AERODROME AWS Lat: -33.99 Lon: 150.95 Height: 68.16 m
Data from the previous 72 hours. | See also: Recent months at Holsworthy
Date/Time
EDT
Temp
°C
App
Temp
°C
Dew
Point
°C
Rel
Hum
%
Delta-T
°C
Wind Press
QNH
hPa
Press
MSL
hPa
Rain since
9am
mm
Dir  Spd
km/h
Gust
km/h
Spd
kts
Gust
kts
28/03:30pm 22.2 19.1 14.6 62 4.5 SE 24 37 13 20 1020.6 1020.3 0.0
28/03:00pm 22.1 18.3 14.7 63 4.4 SE 28 37 15 20 1020.8 1020.5 0.0
28/02:30pm 21.4 19.1 14.6 65 4.0 SE 20 30 11 16 1021.1 1020.8 0.0
28/02:00pm 21.8 18.8 14.7 64 4.2 SE 24 33 13 18 1021.2 1020.9 0.0
28/01:30pm 22.2 18.7 13.5 57 5.0 SE 24 33 13 18 1021.2 1020.9 0.0
28/01:00pm 22.3 18.9 13.6 58 5.0 SE 24 33 13 18 1021.5 1021.2 0.0
28/12:30pm 21.9 17.9 14.0 61 4.6 SSE 28 39 15 21 1021.7 1021.4 0.0
28/12:00pm 21.7 18.7 14.8 65 4.1 SE 24 39 13 21 1021.8 1021.5 0.0
28/11:30am 19.9 16.8 15.7 77 2.5 SE 26 33 14 18 1021.9 1021.6 0.0
28/11:00am 19.3 16.9 16.5 84 1.7 SE 24 32 13 17 1021.8 1021.5 0.0
28/10:57am 19.4 17.1 16.6 84 1.7 SE 24 32 13 17 1021.8 1021.5 0.0
28/10:44am 19.3 16.6 16.7 85 1.6 ESE 26 37 14 20 1021.7 1021.4 0.0
28/10:30am 21.0 18.7 15.8 72 3.1 SE 22 32 12 17 1021.5 1021.2 0.0
28/10:00am 21.1 19.2 15.2 69 3.5 SE 19 26 10 14 1021.4 1021.1 0.0
28/09:30am 20.9 18.9 15.4 71 3.3 SE 20 28 11 15 1021.1 1020.8 0.0
28/09:00am 20.8 19.5 15.8 73 3.0 SE 17 24 9 13 1021.0 1020.7 4.2
28/08:30am 20.7 18.8 15.7 73 3.0 SE 20 30 11 16 1020.8 1020.5 4.2
28/08:00am 20.6 18.6 15.6 73 3.0 SE 20 28 11 15 1020.6 1020.3 4.2
28/07:30am 20.4 19.5 15.8 75 2.8 SE 15 20 8 11 1020.2 1019.9 4.2
28/07:00am 19.9 19.8 16.0 78 2.3 SSE 11 17 6 9 1020.0 1019.7 4.2
28/06:30am 19.9 18.7 16.2 79 2.2 SE 17 26 9 14 1019.6 1019.3 4.2
28/06:00am 19.9 18.4 16.2 79 2.2 SE 19 28 10 15 1019.4 1019.1 4.2
28/05:30am 19.9 18.8 16.3 80 2.2 SE 17 28 9 15 1018.9 1018.6 4.2
28/05:00am 19.7 17.5 16.0 79 2.2 SE 22 28 12 15 1018.4 1018.1 4.2
28/04:30am 19.8 19.5 16.4 81 2.0 SSE 13 20 7 11 1018.4 1018.1 4.2
28/04:00am 19.7 19.4 16.5 82 1.9 SE 13 20 7 11 1018.3 1018.0 4.2
28/03:30am 19.6 18.1 16.4 82 1.9 SE 19 28 10 15 1018.3 1018.0 4.2
28/03:00am 19.1 18.1 16.7 86 1.4 SE 17 28 9 15 1018.5 1018.2 4.2
28/02:30am 18.7 18.3 17.2 91 0.9 SSE 15 20 8 11 1018.8 1018.5 4.2
28/02:20am 18.7 17.9 17.2 91 0.9 SSE 17 26 9 14 1018.8 1018.5 4.2
28/02:00am 18.7 17.1 17.4 92 0.8 SE 22 32 12 17 1018.7 1018.4 4.2
28/01:48am 18.9 17.9 17.6 92 0.8 SE 19 26 10 14 1018.6 1018.3 4.2
28/01:30am 18.8 18.1 17.3 91 0.9 SE 17 24 9 13 1018.7 1018.4 4.2
28/01:19am 18.8 18.0 17.1 90 1.0 SE 17 24 9 13 1018.7 1018.4 4.2
28/01:03am 18.9 18.3 17.6 92 0.8 SE 17 26 9 14 1018.9 1018.6 4.2
28/01:00am 18.9 18.2 17.4 91 0.9 SE 17 26 9 14 1018.9 1018.6 4.2
28/12:30am 19.0 18.6 17.1 89 1.2 SE 15 24 8 13 1018.9 1018.6 4.2
28/12:00am 18.9 17.8 17.2 90 1.0 SE 19 28 10 15 1018.9 1018.6 4.2
 
Date/Time
EDT
Temp
°C
App
Temp
°C
Dew
Point
°C
Rel
Hum
%
Delta-T
°C
Wind Press
QNH
hPa
Press
MSL
hPa
Rain since
9am
mm
Dir  Spd
km/h
Gust
km/h
Spd
kts
Gust
kts
27/11:33pm 18.8 17.4 17.1 90 1.0 SE 20 32 11 17 1019.0 1018.7 4.2
27/11:30pm 18.8 17.6 17.1 90 1.0 SE 19 28 10 15 1019.1 1018.8 4.2
27/11:00pm 18.6 18.7 17.4 93 0.7 SSE 13 20 7 11 1018.9 1018.6 4.2
27/10:30pm 18.6 17.9 17.3 92 0.8 SE 17 24 9 13 1019.0 1018.7 4.2
27/10:00pm 18.5 18.2 17.3 93 0.7 SE 15 24 8 13 1018.8 1018.5 4.2
27/09:30pm 18.9 18.4 17.9 94 0.6 SE 17 28 9 15 1018.7 1018.4 4.0
27/09:00pm 19.0 19.0 18.0 94 0.6 SE 15 22 8 12 1018.0 1017.7 3.8
27/08:33pm 19.0 19.0 18.2 95 0.5 SSE 15 20 8 11 1017.8 1017.5 3.0
27/08:30pm 18.9 19.2 17.9 94 0.6 SSE 13 20 7 11 1017.7 1017.4 2.8
27/08:13pm 18.9 20.0 17.9 94 0.6 SSE 9 13 5 7 1017.6 1017.3 2.0
27/08:00pm 18.9 19.9 17.7 93 0.7 S 9 13 5 7 1017.5 1017.2 0.8
27/07:30pm 18.9 19.8 17.6 92 0.8 SW 9 11 5 6 1017.0 1016.7 0.2
27/07:00pm 19.0 19.3 17.1 89 1.2 SSW 11 17 6 9 1016.6 1016.3 0.2
27/06:30pm 19.5 19.4 16.9 85 1.6 SSW 13 20 7 11 1015.9 1015.6 0.0
27/06:08pm 19.9 19.7 16.7 82 1.9 SSW 13 19 7 10 1015.8 1015.5 0.0
27/06:00pm 20.0 19.4 16.6 81 2.1 SSW 15 20 8 11 1015.7 1015.4 0.0
27/05:30pm 20.2 20.0 16.6 80 2.2 SSW 13 19 7 10 1015.2 1014.8 0.0
27/05:00pm 20.5 19.0 16.7 79 2.3 S 20 35 11 19 1015.1 1014.7 0.0
27/04:30pm 20.9 19.2 16.3 75 2.8 S 20 32 11 17 1015.1 1014.7 0.0
27/04:00pm 20.9 18.6 16.7 77 2.6 SSE 24 43 13 23 1015.1 1014.7 0.0
27/03:30pm 20.6 19.0 16.6 78 2.4 S 20 33 11 18 1015.1 1014.7 0.0
27/03:00pm 21.2 19.2 16.4 74 2.9 S 22 39 12 21 1014.9 1014.5 0.0
27/02:30pm 21.6 19.5 16.3 72 3.2 S 22 32 12 17 1014.8 1014.4 0.0
27/02:00pm 22.0 20.2 16.9 73 3.1 S 22 35 12 19 1014.7 1014.3 0.0
27/01:30pm 22.7 20.6 17.2 71 3.4 SSE 24 39 13 21 1014.2 1013.9 0.0
27/01:00pm 22.2 20.1 17.1 73 3.1 S 24 43 13 23 1013.9 1013.6 0.0
27/12:30pm 21.6 20.5 17.2 76 2.7 S 19 35 10 19 1014.1 1013.8 0.0
27/12:17pm 21.6 20.4 17.4 77 2.6 S 20 32 11 17 1014.0 1013.7 0.0
27/12:00pm 21.7 20.0 17.3 76 2.7 S 22 33 12 18 1013.9 1013.6 0.0
27/11:30am 21.8 20.9 17.8 78 2.5 SSE 19 39 10 21 1013.8 1013.5 0.0
27/11:00am 21.5 18.8 17.5 78 2.5 SSE 28 46 15 25 1013.5 1013.2 0.0
27/10:59am 21.5 18.8 17.5 78 2.5 SSE 28 46 15 25 1013.5 1013.2 0.0
27/10:52am 21.5 20.4 17.7 79 2.4 S 20 46 11 25 1013.3 1013.0 0.0
27/10:30am 21.6 21.6 18.2 81 2.1 S 15 24 8 13 1012.9 1012.6 0.0
27/10:00am 21.7 20.9 18.1 80 2.2 S 19 32 10 17 1012.7 1012.4 0.0
27/09:30am 21.8 20.8 18.0 79 2.4 S 20 35 11 19 1012.4 1012.1 0.0
27/09:00am 21.9 20.6 18.1 79 2.4 S 22 35 12 19 1012.0 1011.7 0.0
27/08:30am 21.7 21.7 18.1 80 2.2 S 15 26 8 14 1011.5 1011.2 0.0
27/08:00am 21.6 20.6 18.0 80 2.2 S 20 37 11 20 1011.1 1010.8 0.0
27/07:30am 21.3 19.6 18.1 82 2.0 S 24 37 13 20 1010.6 1010.3 0.0
27/07:00am 21.4 19.7 18.0 81 2.1 S 24 43 13 23 1009.9 1009.6 0.0
27/06:30am 21.2 21.5 17.8 81 2.1 SSW 13 24 7 13 1009.3 1009.0 0.0
27/06:00am 21.1 20.7 18.1 83 1.9 SSW 17 24 9 13 1008.7 1008.4 0.0
27/05:30am 21.5 22.0 18.3 82 2.0 SSW 13 24 7 13 1008.1 1007.8 0.0
27/05:00am 21.7 22.0 18.7 83 1.9 SSW 15 22 8 12 1007.5 1007.2 0.0
27/04:30am 22.1 22.0 19.5 85 1.7 S 19 32 10 17 1007.3 1007.0 0.0
27/04:00am 22.6 22.7 19.9 85 1.7 S 19 30 10 16 1007.0 1006.7 0.0
27/03:30am 23.3 24.4 20.4 84 1.9 S 15 24 8 13 1006.8 1006.5 0.0
27/03:00am 23.8 25.2 20.3 81 2.3 SSE 13 19 7 10 1006.7 1006.4 0.0
27/02:30am 23.9 25.3 20.4 81 2.3 SSE 13 22 7 12 1006.7 1006.4 0.0
27/02:00am 23.8 26.4 20.5 82 2.2 SSW 7 11 4 6 1006.7 1006.4 0.0
27/01:30am 23.7 25.5 20.4 82 2.1 S 11 19 6 10 1006.3 1006.0 0.0
27/01:22am 23.7 25.1 20.4 82 2.1 S 13 19 7 10 1006.2 1005.9 0.0
27/01:00am 23.6 23.7 20.3 82 2.1 SSW 20 35 11 19 1006.1 1005.8 0.0
27/12:30am 23.7 23.4 20.4 82 2.1 SE 22 32 12 17 1005.7 1005.4 0.0
27/12:00am 23.8 24.1 19.7 78 2.6 SSE 17 30 9 16 1005.6 1005.3 0.0
 
Date/Time
EDT
Temp
°C
App
Temp
°C
Dew
Point
°C
Rel
Hum
%
Delta-T
°C
Wind Press
QNH
hPa
Press
MSL
hPa
Rain since
9am
mm
Dir  Spd
km/h
Gust
km/h
Spd
kts
Gust
kts
26/11:30pm 24.7 22.8 18.6 69 3.9 SE 26 41 14 22 1004.9 1004.6 0.0
26/11:00pm 25.2 24.4 19.3 70 3.8 SSE 22 28 12 15 1005.7 1005.4 0.0
26/10:30pm 25.9 25.8 18.8 65 4.5 S 17 28 9 15 1005.4 1005.1 0.0
26/10:00pm 26.9 25.7 18.5 60 5.4 S 22 33 12 18 1004.9 1004.6 0.0
26/09:30pm 27.9 28.3 18.9 58 5.8 SSE 15 30 8 16 1004.3 1004.0 0.0
26/09:00pm 27.8 28.9 18.8 58 5.8 SSW 11 17 6 9 1003.9 1003.6 0.0
26/08:30pm 29.4 30.5 17.9 50 7.3 SSW 9 11 5 6 1003.1 1002.8 0.0
26/08:00pm 30.5 31.6 17.2 44 8.5 SE 7 13 4 7 1002.3 1001.9 0.0
26/07:30pm 31.3 30.8 16.9 42 9.1 E 15 19 8 10 1001.1 1000.7 0.0
26/07:00pm 32.0 31.3 16.3 39 9.9 ENE 15 20 8 11 1000.6 1000.2 0.0
26/06:30pm 32.7 31.5 16.1 37 10.4 E 17 22 9 12 1000.1 999.7 0.0
26/06:00pm 33.7 32.7 15.7 34 11.3 E 15 22 8 12 999.9 999.5 0.0
26/05:30pm 36.5 35.0 10.6 21 15.2 W 9 15 5 8 999.8 999.4 0.0
26/05:00pm 36.7 33.2 10.1 20 15.6 W 19 28 10 15 999.7 999.3 0.0
26/04:30pm 37.9 35.8 11.1 20 16.0 NW 13 20 7 11 999.6 999.2 0.0
26/04:00pm 38.7 34.6 10.1 18 16.9 WSW 22 39 12 21 999.4 999.0 0.0
26/03:30pm 37.7 34.0 10.1 19 16.2 W 20 28 11 15 999.6 999.2 0.0
26/03:00pm 38.7 35.0 10.1 18 16.9 WNW 20 32 11 17 999.7 999.3 0.0
26/02:30pm 37.8 34.1 10.2 19 16.2 WNW 20 32 11 17 999.9 999.5 0.0
26/02:00pm 38.6 35.0 10.0 18 16.9 WNW 19 33 10 18 1000.0 999.6 0.0
26/01:30pm 37.8 35.3 11.0 20 16.0 NW 15 30 8 16 1000.4 1000.0 0.0
26/01:00pm 37.6 34.8 11.5 21 15.7 W 17 32 9 17 1000.7 1000.3 0.0
26/12:30pm 37.0 34.4 13.1 24 14.6 NW 19 30 10 16 1001.2 1000.8 0.0
26/12:00pm 36.6 33.9 12.8 24 14.5 NNW 19 28 10 15 1001.6 1001.2 0.0
26/11:30am 35.2 32.8 12.8 26 13.6 NNW 17 28 9 15 1001.8 1001.4 0.0
26/11:00am 34.0 32.0 14.0 30 12.3 NNW 17 24 9 13 1002.2 1001.8 0.0
26/10:30am 33.2 33.1 16.1 35 10.8 N 11 17 6 9 1002.5 1002.1 0.0
26/10:00am 31.4 32.0 16.9 41 9.2 NNW 9 13 5 7 1002.7 1002.3 0.0
26/09:30am 28.5 29.9 18.6 55 6.4 NNW 9 15 5 8 1002.9 1002.5 0.0
26/09:00am 26.4 28.5 19.3 65 4.6 W 7 13 4 7 1003.2 1002.9 0.0
26/08:30am 24.4 26.0 19.2 73 3.3 NW 9 13 5 7 1003.2 1002.9 0.0
26/08:00am 23.0 25.3 19.4 80 2.3 W 6 9 3 5 1003.0 1002.7 0.0
26/07:30am 22.2 25.9 19.9 87 1.5 CALM 0 0 0 0 1002.8 1002.4 0.0
26/07:00am 20.6 23.9 19.1 91 1.0 CALM 0 0 0 0 1002.8 1002.4 0.0
26/06:30am 19.6 22.5 18.1 91 0.9 CALM 0 0 0 0 1002.5 1002.1 0.0
26/06:00am 20.1 23.3 18.9 93 0.8 CALM 0 0 0 0 1002.4 1002.0 0.0
26/05:30am 20.2 23.3 18.7 91 0.9 CALM 0 0 0 0 1002.2 1001.8 0.0
26/05:00am 20.0 22.9 18.3 90 1.1 CALM 0 0 0 0 1002.0 1001.6 0.0
26/04:30am 20.8 23.4 19.3 91 1.0 ESE 4 6 2 3 1002.0 1001.6 0.0
26/04:00am 20.7 24.0 19.2 91 1.0 CALM 0 0 0 0 1002.1 1001.7 0.0
26/03:30am 20.8 22.9 18.9 89 1.2 ESE 6 6 3 3 1002.4 1002.0 0.0
26/03:00am 21.7 25.2 19.6 88 1.3 CALM 0 0 0 0 1002.7 1002.3 0.0
26/02:30am 21.7 24.7 19.3 86 1.5 ESE 2 6 1 3 1003.1 1002.8 0.0
26/02:00am 22.2 25.9 19.9 87 1.5 CALM 0 0 0 0 1003.4 1003.1 0.0
26/01:30am 22.7 25.2 19.9 84 1.8 E 6 7 3 4 1003.7 1003.4 0.0
26/01:00am 22.9 25.2 19.9 83 1.9 E 7 9 4 5 1003.9 1003.6 0.0
26/12:30am 23.2 24.8 20.0 82 2.1 ESE 11 15 6 8 1004.2 1003.9 0.0
26/12:00am 23.5 25.7 19.6 79 2.5 ESE 7 11 4 6 1004.6 1004.3 0.0
 
Date/Time
EDT
Temp
°C
App
Temp
°C
Dew
Point
°C
Rel
Hum
%
Delta-T
°C
Wind Press
QNH
hPa
Press
MSL
hPa
Rain since
9am
mm
Dir  Spd
km/h
Gust
km/h
Spd
kts
Gust
kts
25/11:30pm 23.6 25.0 19.5 78 2.6 E 11 13 6 7 1004.7 1004.4 0.0
25/11:00pm 24.1 25.8 19.4 75 3.0 ESE 9 13 5 7 1004.8 1004.5 0.0
25/10:30pm 24.4 26.0 19.2 73 3.3 SE 9 13 5 7 1005.0 1004.7 0.0
25/10:00pm 24.8 26.3 19.0 70 3.7 ESE 9 11 5 6 1004.9 1004.6 0.0
25/09:30pm 24.9 26.3 18.6 68 4.0 E 9 11 5 6 1004.8 1004.5 0.0
25/09:00pm 25.1 25.5 18.1 65 4.4 ENE 13 19 7 10 1004.4 1004.1 0.0
25/08:30pm 25.8 25.6 17.7 61 5.1 ENE 15 20 8 11 1004.2 1003.9 0.0
25/08:00pm 26.5 25.3 17.0 56 5.9 ENE 19 30 10 16 1004.0 1003.7 0.0
25/07:30pm 27.8 26.4 17.0 51 6.8 E 20 30 11 16 1003.9 1003.6 0.0
25/07:00pm 28.6 26.6 16.5 48 7.6 ENE 22 32 12 17 1003.9 1003.6 0.0
25/06:30pm 29.6 28.0 16.1 44 8.4 ENE 19 28 10 15 1003.9 1003.6 0.0
25/06:00pm 30.7 28.5 15.9 40 9.2 E 22 33 12 18 1003.9 1003.6 0.0
25/05:30pm 31.9 29.4 14.1 34 10.8 E 20 28 11 15 1003.9 1003.6 0.0
25/05:00pm 33.2 31.0 14.8 33 11.4 E 20 30 11 16 1004.1 1003.8 0.0
25/04:30pm 33.3 30.0 12.9 29 12.3 E 22 30 12 16 1004.5 1004.2 0.0
25/04:00pm 34.5 30.1 9.0 21 14.6 E 22 30 12 16 1004.8 1004.5 0.0

Other formats

Comma delimited format used in spreadsheet applications
http://www.bom.gov.au/fwo/IDN60801/IDN60801.95761.axf

JavaScript Object Notation format (JSON) in row-major order
http://www.bom.gov.au/fwo/IDN60801/IDN60801.95761.json

Data quality

Most of these data are generated automatically and are frequently updated. Quality checks on data are not normally performed. It is possible for incorrect values to appear. Refer to information at About Latest Weather Observations and please check the disclaimer before using these data.